Ashcroft, Canada
Current Conditions -  °F | °C
As of 4:00 AM on Monday 20 Oct 2014 (Local Time) from CYKA Reporting Station
Broken Clouds Broken Clouds  
Wind Chill: 59°   Ceiling: 22000
Heat Index: 59°   Visibility: 40mi
Dew Point: 46°   Wind: 5mph
Humidity: 63%   Direction: 60°ENE
Pressure: 29.65"   Gusts: NA
Location:  50.72°N, 121.27°W
Report Text: CYKA 201100Z 06004KT 40SM FEW092 SCT160 BKN220 15/08 A2965 RMK AC2AC1CI3 SLP041 DENSITY ALT 1600FT
Loading
Personal Weather Stations






























Interactive Weather Map
Tropical Storm Tracking
New forecast layout! Learn more

10-Day Weather Forecast

Advertisements
Track Severe Weather on mobile